AAL1115 KRDU-KPHL
Flight info
| Callsign | AAL1115 |
|---|---|
| Flight time | 0h 56m |
| Altitude | 35000 |
| Route | OXFRD5 CARML BBDOL PAATS4 |
| Aircraft | B738/M-SDE2E3FGHIRWXY/LB1 |
Departure
| Time | 2026-05-03 21:57 |
|---|---|
| Airport | Raleigh-Durham International Airport (KRDU) |
Arrival
| Time | 2026-05-03 22:54 |
|---|---|
| Airport | Philadelphia International Airport (KPHL) |
| Time | Latitude | Longitude | Altitude | Speed | Heading |
|---|---|---|---|---|---|
| 2026-05-03 21:33 | 35.87872 | -78.79273 | 391 ft | 0 kts | 132° |
| 2026-05-03 21:50 | 35.87874 | -78.79275 | 391 ft | 3 kts | 132° |
| 2026-05-03 21:50 | 35.87890 | -78.79296 | 391 ft | 4 kts | 123° |
| 2026-05-03 21:50 | 35.87899 | -78.79325 | 391 ft | 4 kts | 87° |
| 2026-05-03 21:50 | 35.87892 | -78.79352 | 391 ft | 2 kts | 45° |
| 2026-05-03 21:51 | 35.87888 | -78.79357 | 391 ft | 0 kts | 45° |
| 2026-05-03 21:53 | 35.87893 | -78.79351 | 391 ft | 4 kts | 45° |
| 2026-05-03 21:53 | 35.87946 | -78.79285 | 391 ft | 17 kts | 45° |
| 2026-05-03 21:53 | 35.88048 | -78.79159 | 391 ft | 22 kts | 45° |
| 2026-05-03 21:54 | 35.88153 | -78.79026 | 390 ft | 21 kts | 45° |
| 2026-05-03 21:54 | 35.88255 | -78.78898 | 390 ft | 21 kts | 45° |
| 2026-05-03 21:54 | 35.88378 | -78.78747 | 390 ft | 29 kts | 45° |
| 2026-05-03 21:54 | 35.88528 | -78.78562 | 391 ft | 28 kts | 45° |
| 2026-05-03 21:55 | 35.88659 | -78.78400 | 391 ft | 26 kts | 45° |
| 2026-05-03 21:55 | 35.88781 | -78.78249 | 391 ft | 24 kts | 45° |
| 2026-05-03 21:55 | 35.88918 | -78.78162 | 391 ft | 23 kts | 7° |
| 2026-05-03 21:55 | 35.89036 | -78.78041 | 390 ft | 22 kts | 45° |
| 2026-05-03 21:56 | 35.89144 | -78.77909 | 391 ft | 21 kts | 45° |
| 2026-05-03 21:56 | 35.89248 | -78.77781 | 391 ft | 21 kts | 44° |
| 2026-05-03 21:56 | 35.89345 | -78.77782 | 392 ft | 16 kts | 310° |
| 2026-05-03 21:56 | 35.89347 | -78.77853 | 391 ft | 0 kts | 225° |
| 2026-05-03 21:57 | 35.89302 | -78.77908 | 391 ft | 36 kts | 225° |
| 2026-05-03 21:57 | 35.88947 | -78.78345 | 391 ft | 107 kts | 225° |
| 2026-05-03 21:57 | 35.88275 | -78.79173 | 407 ft | 162 kts | 225° |
| 2026-05-03 21:57 | 35.87456 | -78.80164 | 1043 ft | 166 kts | 226° |
| 2026-05-03 21:58 | 35.86609 | -78.81184 | 1791 ft | 170 kts | 226° |
| 2026-05-03 21:58 | 35.85703 | -78.82270 | 2204 ft | 197 kts | 226° |
| 2026-05-03 21:58 | 35.84670 | -78.83506 | 2571 ft | 215 kts | 226° |
| 2026-05-03 21:58 | 35.83678 | -78.84910 | 3093 ft | 220 kts | 245° |
| 2026-05-03 21:59 | 35.83332 | -78.86803 | 3329 ft | 242 kts | 276° |
| 2026-05-03 21:59 | 35.83911 | -78.88784 | 3864 ft | 253 kts | 306° |
| 2026-05-03 21:59 | 35.85205 | -78.90267 | 4656 ft | 256 kts | 322° |
| 2026-05-03 21:59 | 35.86704 | -78.91466 | 5432 ft | 260 kts | 336° |
| 2026-05-03 22:00 | 35.88507 | -78.91673 | 6155 ft | 269 kts | 12° |
| 2026-05-03 22:00 | 35.90203 | -78.90675 | 6947 ft | 273 kts | 27° |
| 2026-05-03 22:00 | 35.91869 | -78.89512 | 7649 ft | 277 kts | 27° |
| 2026-05-03 22:00 | 35.93570 | -78.88350 | 8368 ft | 281 kts | 26° |
| 2026-05-03 22:01 | 35.95294 | -78.87193 | 9083 ft | 284 kts | 26° |
| 2026-05-03 22:01 | 35.97044 | -78.86034 | 9803 ft | 287 kts | 25° |
| 2026-05-03 22:01 | 35.98830 | -78.84867 | 10351 ft | 297 kts | 24° |
| 2026-05-03 22:01 | 36.00735 | -78.83637 | 10508 ft | 320 kts | 23° |
| 2026-05-03 22:02 | 36.02773 | -78.82329 | 10746 ft | 339 kts | 24° |
| 2026-05-03 22:02 | 36.04895 | -78.80965 | 11281 ft | 347 kts | 23° |
| 2026-05-03 22:02 | 36.07046 | -78.79582 | 11946 ft | 350 kts | 22° |
| 2026-05-03 22:02 | 36.09219 | -78.78185 | 12608 ft | 355 kts | 22° |
| 2026-05-03 22:03 | 36.11425 | -78.76770 | 13252 ft | 359 kts | 22° |
| 2026-05-03 22:03 | 36.13648 | -78.75345 | 13943 ft | 362 kts | 21° |
| 2026-05-03 22:03 | 36.15894 | -78.73904 | 14644 ft | 365 kts | 21° |
| 2026-05-03 22:03 | 36.18163 | -78.72447 | 15332 ft | 369 kts | 21° |
| 2026-05-03 22:04 | 36.20453 | -78.70976 | 15998 ft | 372 kts | 21° |
| 2026-05-03 22:04 | 36.22765 | -78.69491 | 16647 ft | 376 kts | 21° |
| 2026-05-03 22:04 | 36.25097 | -78.67991 | 17310 ft | 379 kts | 20° |
| 2026-05-03 22:04 | 36.27452 | -78.66475 | 17935 ft | 383 kts | 20° |
| 2026-05-03 22:05 | 36.29488 | -78.65164 | 18439 ft | 386 kts | 20° |
| 2026-05-03 22:05 | 36.30690 | -78.64389 | 18733 ft | 388 kts | 20° |
| 2026-05-03 22:05 | 36.33102 | -78.62837 | 19278 ft | 393 kts | 20° |
| 2026-05-03 22:05 | 36.35542 | -78.61275 | 19809 ft | 396 kts | 18° |
| 2026-05-03 22:06 | 36.38098 | -78.60077 | 20353 ft | 391 kts | 8° |
| 2026-05-03 22:06 | 36.40728 | -78.59207 | 20908 ft | 392 kts | 6° |
| 2026-05-03 22:06 | 36.43380 | -78.58353 | 21433 ft | 396 kts | 6° |
| 2026-05-03 22:06 | 36.46050 | -78.57451 | 21933 ft | 400 kts | 7° |
| 2026-05-03 22:07 | 36.48742 | -78.56508 | 22464 ft | 403 kts | 7° |
| 2026-05-03 22:07 | 36.51448 | -78.55542 | 22966 ft | 406 kts | 7° |
| 2026-05-03 22:07 | 36.54177 | -78.54562 | 23405 ft | 410 kts | 7° |
| 2026-05-03 22:07 | 36.56933 | -78.53570 | 23849 ft | 414 kts | 7° |
| 2026-05-03 22:08 | 36.59700 | -78.52573 | 24296 ft | 416 kts | 7° |
| 2026-05-03 22:08 | 36.62499 | -78.51565 | 24728 ft | 419 kts | 7° |
| 2026-05-03 22:08 | 36.65315 | -78.50551 | 25133 ft | 423 kts | 7° |
| 2026-05-03 22:08 | 36.68148 | -78.49530 | 25510 ft | 426 kts | 6° |
| 2026-05-03 22:09 | 36.71004 | -78.48501 | 25916 ft | 428 kts | 6° |
| 2026-05-03 22:09 | 36.72908 | -78.47815 | 26192 ft | 430 kts | 6° |
| 2026-05-03 22:09 | 36.75747 | -78.46493 | 26520 ft | 449 kts | 20° |
| 2026-05-03 22:10 | 36.81082 | -78.42180 | 27211 ft | 462 kts | 25° |
| 2026-05-03 22:10 | 36.83755 | -78.39930 | 27539 ft | 465 kts | 25° |
| 2026-05-03 22:10 | 36.86452 | -78.37675 | 27853 ft | 468 kts | 25° |
| 2026-05-03 22:10 | 36.89169 | -78.35425 | 28213 ft | 469 kts | 24° |
| 2026-05-03 22:11 | 36.91896 | -78.33187 | 28550 ft | 471 kts | 24° |
| 2026-05-03 22:11 | 36.94651 | -78.30938 | 28822 ft | 474 kts | 24° |
| 2026-05-03 22:11 | 36.97426 | -78.28680 | 29102 ft | 477 kts | 24° |
| 2026-05-03 22:11 | 37.00215 | -78.26410 | 29416 ft | 479 kts | 24° |
| 2026-05-03 22:12 | 37.03048 | -78.24101 | 29749 ft | 480 kts | 23° |
| 2026-05-03 22:12 | 37.05849 | -78.21816 | 29989 ft | 483 kts | 23° |
| 2026-05-03 22:12 | 37.08674 | -78.19509 | 30219 ft | 486 kts | 23° |
| 2026-05-03 22:12 | 37.11506 | -78.17192 | 30549 ft | 486 kts | 23° |
| 2026-05-03 22:13 | 37.14304 | -78.14897 | 30895 ft | 486 kts | 23° |
| 2026-05-03 22:13 | 37.17130 | -78.12577 | 31232 ft | 486 kts | 23° |
| 2026-05-03 22:13 | 37.19950 | -78.10261 | 31566 ft | 485 kts | 23° |
| 2026-05-03 22:13 | 37.22809 | -78.07910 | 31895 ft | 484 kts | 23° |
| 2026-05-03 22:14 | 37.25631 | -78.05591 | 32138 ft | 486 kts | 23° |
| 2026-05-03 22:14 | 37.28427 | -78.03295 | 32386 ft | 487 kts | 23° |
| 2026-05-03 22:14 | 37.31258 | -78.00963 | 32717 ft | 486 kts | 23° |
| 2026-05-03 22:14 | 37.34079 | -77.98636 | 33074 ft | 484 kts | 23° |
| 2026-05-03 22:15 | 37.36938 | -77.96423 | 33260 ft | 478 kts | 15° |
| 2026-05-03 22:15 | 37.40023 | -77.94866 | 33392 ft | 469 kts | 8° |
| 2026-05-03 22:15 | 37.43101 | -77.93588 | 33698 ft | 465 kts | 7° |
| 2026-05-03 22:15 | 37.46139 | -77.92359 | 34050 ft | 463 kts | 7° |
| 2026-05-03 22:16 | 37.49200 | -77.91085 | 34360 ft | 463 kts | 8° |
| 2026-05-03 22:16 | 37.52256 | -77.89767 | 34575 ft | 465 kts | 8° |
| 2026-05-03 22:16 | 37.55323 | -77.88409 | 34729 ft | 469 kts | 9° |
| 2026-05-03 22:16 | 37.58400 | -77.87031 | 34948 ft | 469 kts | 9° |
| 2026-05-03 22:17 | 37.61482 | -77.85650 | 35065 ft | 472 kts | 9° |
| 2026-05-03 22:17 | 37.64535 | -77.84013 | 35041 ft | 489 kts | 22° |
| 2026-05-03 22:17 | 37.67328 | -77.81477 | 35100 ft | 496 kts | 29° |
| 2026-05-03 22:18 | 37.72719 | -77.76105 | 35063 ft | 490 kts | 29° |
| 2026-05-03 22:18 | 37.78162 | -77.70864 | 35068 ft | 488 kts | 28° |
| 2026-05-03 22:19 | 37.83551 | -77.65746 | 35071 ft | 488 kts | 28° |
| 2026-05-03 22:19 | 37.88960 | -77.60557 | 35061 ft | 488 kts | 28° |
| 2026-05-03 22:20 | 37.94367 | -77.55354 | 35055 ft | 488 kts | 28° |
| 2026-05-03 22:20 | 37.99779 | -77.50141 | 35058 ft | 489 kts | 28° |
| 2026-05-03 22:21 | 38.05201 | -77.44909 | 35061 ft | 489 kts | 28° |
| 2026-05-03 22:21 | 38.10689 | -77.39840 | 35052 ft | 486 kts | 25° |
| 2026-05-03 22:22 | 38.16341 | -77.35139 | 35049 ft | 485 kts | 24° |
| 2026-05-03 22:22 | 38.21989 | -77.30443 | 35041 ft | 486 kts | 24° |
| 2026-05-03 22:23 | 38.27620 | -77.25674 | 35036 ft | 486 kts | 25° |
| 2026-05-03 22:23 | 38.33239 | -77.20881 | 35035 ft | 486 kts | 25° |
| 2026-05-03 22:24 | 38.38852 | -77.16050 | 35030 ft | 489 kts | 29° |
| 2026-05-03 22:24 | 38.43849 | -77.09964 | 35046 ft | 501 kts | 39° |
| 2026-05-03 22:25 | 38.48593 | -77.03449 | 35048 ft | 501 kts | 39° |
| 2026-05-03 22:25 | 38.53434 | -76.96972 | 35046 ft | 500 kts | 38° |
| 2026-05-03 22:26 | 38.58294 | -76.90615 | 34786 ft | 502 kts | 38° |
| 2026-05-03 22:26 | 38.60732 | -76.87429 | 34407 ft | 498 kts | 38° |
| 2026-05-03 22:26 | 38.63109 | -76.84310 | 33998 ft | 494 kts | 38° |
| 2026-05-03 22:26 | 38.65526 | -76.81134 | 33585 ft | 489 kts | 38° |
| 2026-05-03 22:27 | 38.67858 | -76.78067 | 33181 ft | 486 kts | 38° |
| 2026-05-03 22:27 | 38.70090 | -76.74742 | 32713 ft | 493 kts | 51° |
| 2026-05-03 22:27 | 38.71528 | -76.70726 | 32422 ft | 499 kts | 69° |
| 2026-05-03 22:27 | 38.72446 | -76.66458 | 32031 ft | 496 kts | 72° |
| 2026-05-03 22:28 | 38.73287 | -76.62180 | 31605 ft | 494 kts | 72° |
| 2026-05-03 22:28 | 38.74111 | -76.57919 | 31190 ft | 491 kts | 72° |
| 2026-05-03 22:28 | 38.74929 | -76.53753 | 30785 ft | 488 kts | 71° |
| 2026-05-03 22:28 | 38.75783 | -76.49508 | 30386 ft | 484 kts | 71° |
| 2026-05-03 22:29 | 38.76625 | -76.45399 | 29978 ft | 481 kts | 70° |
| 2026-05-03 22:29 | 38.77479 | -76.41270 | 29560 ft | 478 kts | 70° |
| 2026-05-03 22:29 | 38.78340 | -76.37122 | 29154 ft | 474 kts | 70° |
| 2026-05-03 22:29 | 38.79173 | -76.33100 | 28743 ft | 471 kts | 70° |
| 2026-05-03 22:30 | 38.80009 | -76.29059 | 28333 ft | 468 kts | 70° |
| 2026-05-03 22:30 | 38.80848 | -76.24983 | 27923 ft | 464 kts | 70° |
| 2026-05-03 22:30 | 38.81667 | -76.20993 | 27508 ft | 461 kts | 70° |
| 2026-05-03 22:30 | 38.82467 | -76.17091 | 27109 ft | 458 kts | 70° |
| 2026-05-03 22:31 | 38.83272 | -76.13156 | 26703 ft | 454 kts | 70° |
| 2026-05-03 22:31 | 38.84070 | -76.09252 | 26303 ft | 451 kts | 70° |
| 2026-05-03 22:31 | 38.84859 | -76.05380 | 25906 ft | 448 kts | 70° |
| 2026-05-03 22:31 | 38.85641 | -76.01534 | 25517 ft | 444 kts | 70° |
| 2026-05-03 22:32 | 38.86409 | -75.97734 | 25261 ft | 436 kts | 70° |
| 2026-05-03 22:32 | 38.87162 | -75.93992 | 24996 ft | 430 kts | 70° |
| 2026-05-03 22:32 | 38.87903 | -75.90305 | 24737 ft | 423 kts | 70° |
| 2026-05-03 22:32 | 38.88664 | -75.86682 | 24418 ft | 416 kts | 64° |
| 2026-05-03 22:33 | 38.89989 | -75.83510 | 24067 ft | 395 kts | 44° |
| 2026-05-03 22:33 | 38.91861 | -75.81089 | 23790 ft | 373 kts | 28° |
| 2026-05-03 22:33 | 38.93930 | -75.79128 | 23453 ft | 367 kts | 26° |
| 2026-05-03 22:33 | 38.96008 | -75.77240 | 23079 ft | 365 kts | 26° |
| 2026-05-03 22:34 | 38.98072 | -75.75357 | 22717 ft | 363 kts | 26° |
| 2026-05-03 22:34 | 39.00108 | -75.73466 | 22362 ft | 361 kts | 27° |
| 2026-05-03 22:34 | 39.02129 | -75.71565 | 22007 ft | 359 kts | 27° |
| 2026-05-03 22:34 | 39.04132 | -75.69670 | 21656 ft | 356 kts | 27° |
| 2026-05-03 22:35 | 39.06094 | -75.68109 | 21291 ft | 340 kts | 11° |
| 2026-05-03 22:35 | 39.07033 | -75.67731 | 21163 ft | 329 kts | 3° |
| 2026-05-03 22:35 | 39.09249 | -75.67324 | 20891 ft | 319 kts | 356° |
| 2026-05-03 22:35 | 39.11459 | -75.67099 | 20546 ft | 318 kts | 355° |
| 2026-05-03 22:36 | 39.13666 | -75.66903 | 20202 ft | 318 kts | 355° |
| 2026-05-03 22:36 | 39.15873 | -75.66698 | 19859 ft | 318 kts | 356° |
| 2026-05-03 22:36 | 39.18079 | -75.66479 | 19524 ft | 319 kts | 356° |
| 2026-05-03 22:36 | 39.20281 | -75.66248 | 19174 ft | 316 kts | 356° |
| 2026-05-03 22:37 | 39.22467 | -75.66011 | 18834 ft | 314 kts | 356° |
| 2026-05-03 22:37 | 39.24638 | -75.65773 | 18480 ft | 312 kts | 356° |
| 2026-05-03 22:37 | 39.26792 | -75.65536 | 18136 ft | 310 kts | 357° |
| 2026-05-03 22:37 | 39.28918 | -75.64874 | 17790 ft | 323 kts | 17° |
| 2026-05-03 22:38 | 39.30858 | -75.63357 | 17527 ft | 327 kts | 26° |
| 2026-05-03 22:38 | 39.32734 | -75.61678 | 17182 ft | 328 kts | 26° |
| 2026-05-03 22:38 | 39.34612 | -75.60001 | 16841 ft | 328 kts | 26° |
| 2026-05-03 22:38 | 39.36490 | -75.58346 | 16496 ft | 326 kts | 26° |
| 2026-05-03 22:39 | 39.38306 | -75.56588 | 16122 ft | 333 kts | 39° |
| 2026-05-03 22:39 | 39.39582 | -75.54027 | 15793 ft | 345 kts | 60° |
| 2026-05-03 22:39 | 39.40470 | -75.51143 | 15447 ft | 345 kts | 63° |
| 2026-05-03 22:39 | 39.41305 | -75.48237 | 15095 ft | 344 kts | 64° |
| 2026-05-03 22:40 | 39.42137 | -75.45339 | 14741 ft | 343 kts | 63° |
| 2026-05-03 22:40 | 39.42980 | -75.42454 | 14399 ft | 342 kts | 63° |
| 2026-05-03 22:40 | 39.43823 | -75.39597 | 14115 ft | 338 kts | 63° |
| 2026-05-03 22:40 | 39.44666 | -75.36768 | 13756 ft | 337 kts | 63° |
| 2026-05-03 22:41 | 39.45511 | -75.33946 | 13395 ft | 336 kts | 63° |
| 2026-05-03 22:41 | 39.46554 | -75.31292 | 13031 ft | 324 kts | 45° |
| 2026-05-03 22:41 | 39.48156 | -75.29362 | 12730 ft | 310 kts | 28° |
| 2026-05-03 22:41 | 39.49927 | -75.27813 | 12415 ft | 305 kts | 26° |
| 2026-05-03 22:42 | 39.51709 | -75.26330 | 12077 ft | 304 kts | 26° |
| 2026-05-03 22:42 | 39.53481 | -75.24861 | 11756 ft | 302 kts | 26° |
| 2026-05-03 22:42 | 39.55240 | -75.23389 | 11435 ft | 300 kts | 26° |
| 2026-05-03 22:42 | 39.56981 | -75.21922 | 11120 ft | 298 kts | 27° |
| 2026-05-03 22:43 | 39.58713 | -75.20454 | 10794 ft | 297 kts | 27° |
| 2026-05-03 22:43 | 39.60434 | -75.18988 | 10464 ft | 295 kts | 27° |
| 2026-05-03 22:43 | 39.62137 | -75.17533 | 10264 ft | 290 kts | 27° |
| 2026-05-03 22:43 | 39.63801 | -75.16108 | 10057 ft | 284 kts | 27° |
| 2026-05-03 22:44 | 39.65418 | -75.14720 | 9781 ft | 273 kts | 27° |
| 2026-05-03 22:44 | 39.66989 | -75.13373 | 9307 ft | 269 kts | 27° |
| 2026-05-03 22:44 | 39.68553 | -75.12034 | 8752 ft | 269 kts | 27° |
| 2026-05-03 22:44 | 39.70105 | -75.10702 | 8203 ft | 267 kts | 27° |
| 2026-05-03 22:45 | 39.71651 | -75.09374 | 7703 ft | 265 kts | 27° |
| 2026-05-03 22:45 | 39.73167 | -75.08023 | 7178 ft | 265 kts | 33° |
| 2026-05-03 22:45 | 39.74485 | -75.06325 | 6650 ft | 268 kts | 42° |
| 2026-05-03 22:45 | 39.75713 | -75.04510 | 6133 ft | 267 kts | 43° |
| 2026-05-03 22:46 | 39.76927 | -75.02701 | 5606 ft | 265 kts | 43° |
| 2026-05-03 22:46 | 39.78150 | -75.00913 | 5095 ft | 263 kts | 42° |
| 2026-05-03 22:46 | 39.79372 | -74.99152 | 4586 ft | 262 kts | 42° |
| 2026-05-03 22:46 | 39.80591 | -74.97396 | 4074 ft | 261 kts | 42° |
| 2026-05-03 22:47 | 39.81792 | -74.95661 | 3878 ft | 247 kts | 42° |
| 2026-05-03 22:47 | 39.82947 | -74.94164 | 3737 ft | 226 kts | 26° |
| 2026-05-03 22:47 | 39.84324 | -74.93593 | 3564 ft | 197 kts | 352° |
| 2026-05-03 22:47 | 39.85557 | -74.94134 | 3172 ft | 185 kts | 317° |
| 2026-05-03 22:48 | 39.86475 | -74.95297 | 3065 ft | 188 kts | 312° |
| 2026-05-03 22:48 | 39.87402 | -74.96520 | 2921 ft | 188 kts | 312° |
| 2026-05-03 22:48 | 39.88281 | -74.97671 | 2924 ft | 170 kts | 312° |
| 2026-05-03 22:48 | 39.89077 | -74.98703 | 2939 ft | 157 kts | 312° |
| 2026-05-03 22:49 | 39.89808 | -74.99747 | 2821 ft | 153 kts | 301° |
| 2026-05-03 22:49 | 39.90186 | -75.01009 | 2787 ft | 149 kts | 282° |
| 2026-05-03 22:49 | 39.90327 | -75.02382 | 2574 ft | 155 kts | 279° |
| 2026-05-03 22:49 | 39.90374 | -75.03329 | 2369 ft | 156 kts | 273° |
| 2026-05-03 22:50 | 39.90371 | -75.04746 | 1934 ft | 156 kts | 270° |
| 2026-05-03 22:50 | 39.90310 | -75.06152 | 1781 ft | 154 kts | 264° |
| 2026-05-03 22:50 | 39.90147 | -75.07515 | 1666 ft | 151 kts | 263° |
| 2026-05-03 22:50 | 39.89979 | -75.08849 | 1689 ft | 144 kts | 262° |
| 2026-05-03 22:51 | 39.89810 | -75.10139 | 1630 ft | 145 kts | 264° |
| 2026-05-03 22:51 | 39.89676 | -75.11424 | 1523 ft | 142 kts | 263° |
| 2026-05-03 22:51 | 39.89485 | -75.12684 | 1314 ft | 142 kts | 257° |
| 2026-05-03 22:51 | 39.89195 | -75.13918 | 1100 ft | 142 kts | 255° |
| 2026-05-03 22:52 | 39.88902 | -75.15141 | 960 ft | 140 kts | 256° |
| 2026-05-03 22:52 | 39.88659 | -75.16364 | 808 ft | 140 kts | 259° |
| 2026-05-03 22:52 | 39.88449 | -75.17619 | 665 ft | 144 kts | 259° |
| 2026-05-03 22:52 | 39.88198 | -75.18877 | 551 ft | 142 kts | 257° |
| 2026-05-03 22:53 | 39.87952 | -75.20125 | 405 ft | 143 kts | 258° |
| 2026-05-03 22:53 | 39.87698 | -75.21377 | 211 ft | 141 kts | 259° |
| 2026-05-03 22:53 | 39.87459 | -75.22606 | 36 ft | 139 kts | 257° |
| 2026-05-03 22:53 | 39.87245 | -75.23684 | 27 ft | 97 kts | 255° |
| 2026-05-03 22:54 | 39.87127 | -75.24279 | 26 ft | 50 kts | 255° |
| 2026-05-03 22:54 | 39.87047 | -75.24679 | 27 ft | 36 kts | 257° |
| 2026-05-03 22:54 | 39.87129 | -75.24807 | 27 ft | 19 kts | 47° |
| 2026-05-03 22:54 | 39.87156 | -75.24695 | 24 ft | 12 kts | 75° |
| 2026-05-03 22:55 | 39.87177 | -75.24590 | 24 ft | 12 kts | 75° |
| 2026-05-03 22:55 | 39.87218 | -75.24523 | 27 ft | 9 kts | 358° |
| 2026-05-03 22:55 | 39.87277 | -75.24542 | 24 ft | 9 kts | 345° |
| 2026-05-03 22:55 | 39.87334 | -75.24560 | 27 ft | 8 kts | 346° |
| 2026-05-03 22:56 | 39.87391 | -75.24572 | 24 ft | 8 kts | 0° |
| 2026-05-03 22:56 | 39.87446 | -75.24557 | 24 ft | 8 kts | 19° |
| 2026-05-03 22:56 | 39.87495 | -75.24532 | 24 ft | 7 kts | 25° |
| 2026-05-03 22:56 | 39.87512 | -75.24475 | 26 ft | 7 kts | 101° |
| 2026-05-03 22:57 | 39.87501 | -75.24434 | 26 ft | 0 kts | 110° |